sensor_id;sensor_type;location;lat;lon;timestamp;P1;durP1;ratioP1;P2;durP2;ratioP2
52104;SDS011;38103;42.776;23.112;2023-04-25T00:01:02;5.57;;;2.08;;
52104;SDS011;38103;42.776;23.112;2023-04-25T00:03:29;7.20;;;2.00;;
52104;SDS011;38103;42.776;23.112;2023-04-25T00:05:55;7.90;;;2.60;;
52104;SDS011;38103;42.776;23.112;2023-04-25T00:08:21;5.05;;;1.90;;
52104;SDS011;38103;42.776;23.112;2023-04-25T00:10:47;5.05;;;2.05;;
52104;SDS011;38103;42.776;23.112;2023-04-25T00:13:14;5.07;;;1.90;;
52104;SDS011;38103;42.776;23.112;2023-04-25T00:15:42;5.65;;;2.00;;
52104;SDS011;38103;42.776;23.112;2023-04-25T00:18:07;7.50;;;2.08;;
52104;SDS011;38103;42.776;23.112;2023-04-25T00:20:33;7.40;;;2.03;;
52104;SDS011;38103;42.776;23.112;2023-04-25T00:23:00;4.50;;;1.90;;
52104;SDS011;38103;42.776;23.112;2023-04-25T00:25:26;4.60;;;1.88;;
52104;SDS011;38103;42.776;23.112;2023-04-25T00:27:51;7.35;;;1.90;;
52104;SDS011;38103;42.776;23.112;2023-04-25T00:30:16;3.72;;;1.70;;
52104;SDS011;38103;42.776;23.112;2023-04-25T00:32:42;4.55;;;1.90;;
52104;SDS011;38103;42.776;23.112;2023-04-25T00:35:08;5.93;;;2.03;;
52104;SDS011;38103;42.776;23.112;2023-04-25T00:37:34;5.78;;;1.80;;
52104;SDS011;38103;42.776;23.112;2023-04-25T00:40:00;4.35;;;1.80;;
52104;SDS011;38103;42.776;23.112;2023-04-25T00:42:25;4.82;;;1.90;;
52104;SDS011;38103;42.776;23.112;2023-04-25T00:44:51;5.30;;;1.83;;
52104;SDS011;38103;42.776;23.112;2023-04-25T00:47:17;7.43;;;1.90;;
52104;SDS011;38103;42.776;23.112;2023-04-25T00:49:43;6.38;;;1.90;;
52104;SDS011;38103;42.776;23.112;2023-04-25T00:52:09;5.15;;;2.00;;
52104;SDS011;38103;42.776;23.112;2023-04-25T00:54:35;5.43;;;1.90;;
52104;SDS011;38103;42.776;23.112;2023-04-25T00:57:00;3.55;;;1.70;;
52104;SDS011;38103;42.776;23.112;2023-04-25T00:59:26;4.25;;;1.80;;
52104;SDS011;38103;42.776;23.112;2023-04-25T01:01:53;6.15;;;1.90;;
52104;SDS011;38103;42.776;23.112;2023-04-25T01:04:18;5.18;;;2.08;;
52104;SDS011;38103;42.776;23.112;2023-04-25T01:06:44;3.90;;;1.80;;
52104;SDS011;38103;42.776;23.112;2023-04-25T01:09:10;5.15;;;1.90;;
52104;SDS011;38103;42.776;23.112;2023-04-25T01:11:35;6.40;;;2.20;;
52104;SDS011;38103;42.776;23.112;2023-04-25T01:14:01;6.78;;;1.88;;
52104;SDS011;38103;42.776;23.112;2023-04-25T01:16:27;3.88;;;1.90;;
52104;SDS011;38103;42.776;23.112;2023-04-25T01:18:53;6.25;;;2.10;;
52104;SDS011;38103;42.776;23.112;2023-04-25T01:21:19;7.75;;;2.15;;
52104;SDS011;38103;42.776;23.112;2023-04-25T01:23:44;6.15;;;2.28;;
52104;SDS011;38103;42.776;23.112;2023-04-25T01:26:10;5.30;;;2.00;;
52104;SDS011;38103;42.776;23.112;2023-04-25T01:28:37;5.70;;;1.92;;
52104;SDS011;38103;42.776;23.112;2023-04-25T01:31:06;5.47;;;2.03;;
52104;SDS011;38103;42.776;23.112;2023-04-25T01:33:32;6.38;;;2.00;;
52104;SDS011;38103;42.776;23.112;2023-04-25T01:35:57;6.28;;;2.20;;
52104;SDS011;38103;42.776;23.112;2023-04-25T01:38:23;6.78;;;2.10;;
52104;SDS011;38103;42.776;23.112;2023-04-25T01:40:48;6.90;;;2.33;;
52104;SDS011;38103;42.776;23.112;2023-04-25T01:43:15;7.43;;;2.45;;
52104;SDS011;38103;42.776;23.112;2023-04-25T01:45:41;7.32;;;2.35;;
52104;SDS011;38103;42.776;23.112;2023-04-25T01:48:08;9.98;;;2.58;;
52104;SDS011;38103;42.776;23.112;2023-04-25T01:50:34;8.15;;;2.58;;
52104;SDS011;38103;42.776;23.112;2023-04-25T01:52:59;13.23;;;2.90;;
52104;SDS011;38103;42.776;23.112;2023-04-25T01:55:25;9.88;;;3.05;;
52104;SDS011;38103;42.776;23.112;2023-04-25T01:57:51;14.65;;;3.58;;
52104;SDS011;38103;42.776;23.112;2023-04-25T02:00:16;9.57;;;2.80;;
52104;SDS011;38103;42.776;23.112;2023-04-25T02:02:42;13.75;;;5.32;;
52104;SDS011;38103;42.776;23.112;2023-04-25T02:05:07;10.88;;;3.60;;
52104;SDS011;38103;42.776;23.112;2023-04-25T02:07:32;12.88;;;4.03;;
52104;SDS011;38103;42.776;23.112;2023-04-25T02:09:58;13.63;;;3.65;;
52104;SDS011;38103;42.776;23.112;2023-04-25T02:12:23;15.30;;;3.80;;
52104;SDS011;38103;42.776;23.112;2023-04-25T02:14:51;14.27;;;3.30;;
52104;SDS011;38103;42.776;23.112;2023-04-25T02:17:16;13.48;;;3.40;;
52104;SDS011;38103;42.776;23.112;2023-04-25T02:19:42;10.27;;;3.00;;
52104;SDS011;38103;42.776;23.112;2023-04-25T02:22:08;13.68;;;3.00;;
52104;SDS011;38103;42.776;23.112;2023-04-25T02:24:33;11.32;;;3.60;;
52104;SDS011;38103;42.776;23.112;2023-04-25T02:26:59;11.27;;;3.90;;
52104;SDS011;38103;42.776;23.112;2023-04-25T02:29:25;11.82;;;3.78;;
52104;SDS011;38103;42.776;23.112;2023-04-25T02:31:51;13.25;;;4.18;;
52104;SDS011;38103;42.776;23.112;2023-04-25T02:34:16;10.10;;;3.70;;
52104;SDS011;38103;42.776;23.112;2023-04-25T02:36:41;11.73;;;3.58;;
52104;SDS011;38103;42.776;23.112;2023-04-25T02:39:07;10.73;;;3.92;;
52104;SDS011;38103;42.776;23.112;2023-04-25T02:41:33;14.13;;;4.30;;
52104;SDS011;38103;42.776;23.112;2023-04-25T02:43:58;15.63;;;5.18;;
52104;SDS011;38103;42.776;23.112;2023-04-25T02:46:23;16.25;;;4.68;;
52104;SDS011;38103;42.776;23.112;2023-04-25T02:48:49;12.75;;;4.68;;
52104;SDS011;38103;42.776;23.112;2023-04-25T02:51:14;12.60;;;3.58;;
52104;SDS011;38103;42.776;23.112;2023-04-25T02:53:41;8.60;;;3.53;;
52104;SDS011;38103;42.776;23.112;2023-04-25T02:56:07;11.65;;;4.40;;
52104;SDS011;38103;42.776;23.112;2023-04-25T02:58:32;15.18;;;4.68;;
52104;SDS011;38103;42.776;23.112;2023-04-25T03:00:58;13.55;;;4.32;;
52104;SDS011;38103;42.776;23.112;2023-04-25T03:03:23;15.15;;;5.32;;
52104;SDS011;38103;42.776;23.112;2023-04-25T03:05:49;19.25;;;6.47;;
52104;SDS011;38103;42.776;23.112;2023-04-25T03:08:15;16.42;;;8.10;;
52104;SDS011;38103;42.776;23.112;2023-04-25T03:10:41;12.25;;;4.78;;
52104;SDS011;38103;42.776;23.112;2023-04-25T03:13:07;15.18;;;5.80;;
52104;SDS011;38103;42.776;23.112;2023-04-25T03:15:32;12.15;;;5.38;;
52104;SDS011;38103;42.776;23.112;2023-04-25T03:17:57;11.93;;;5.30;;
52104;SDS011;38103;42.776;23.112;2023-04-25T03:20:23;13.73;;;4.40;;
52104;SDS011;38103;42.776;23.112;2023-04-25T03:22:48;15.93;;;7.18;;
52104;SDS011;38103;42.776;23.112;2023-04-25T03:25:14;13.57;;;5.00;;
52104;SDS011;38103;42.776;23.112;2023-04-25T03:27:39;12.73;;;4.60;;
52104;SDS011;38103;42.776;23.112;2023-04-25T03:30:05;16.17;;;5.63;;
52104;SDS011;38103;42.776;23.112;2023-04-25T03:32:31;10.82;;;4.82;;
52104;SDS011;38103;42.776;23.112;2023-04-25T03:34:57;10.55;;;4.45;;
52104;SDS011;38103;42.776;23.112;2023-04-25T03:37:22;10.73;;;5.00;;
52104;SDS011;38103;42.776;23.112;2023-04-25T03:39:47;11.07;;;4.80;;
52104;SDS011;38103;42.776;23.112;2023-04-25T03:42:13;10.27;;;4.50;;
52104;SDS011;38103;42.776;23.112;2023-04-25T03:44:38;11.73;;;4.55;;
52104;SDS011;38103;42.776;23.112;2023-04-25T03:47:04;12.57;;;4.68;;
52104;SDS011;38103;42.776;23.112;2023-04-25T03:49:29;14.02;;;5.10;;
52104;SDS011;38103;42.776;23.112;2023-04-25T03:51:54;13.85;;;5.68;;
52104;SDS011;38103;42.776;23.112;2023-04-25T03:54:20;15.05;;;7.40;;
52104;SDS011;38103;42.776;23.112;2023-04-25T03:56:45;14.23;;;6.82;;
52104;SDS011;38103;42.776;23.112;2023-04-25T03:59:11;16.25;;;7.80;;
52104;SDS011;38103;42.776;23.112;2023-04-25T04:01:36;19.73;;;10.73;;
52104;SDS011;38103;42.776;23.112;2023-04-25T04:04:02;20.95;;;12.68;;
52104;SDS011;38103;42.776;23.112;2023-04-25T04:06:27;20.75;;;12.05;;
52104;SDS011;38103;42.776;23.112;2023-04-25T04:08:53;22.85;;;11.35;;
52104;SDS011;38103;42.776;23.112;2023-04-25T04:11:19;26.27;;;12.75;;
52104;SDS011;38103;42.776;23.112;2023-04-25T04:13:45;21.77;;;10.45;;
52104;SDS011;38103;42.776;23.112;2023-04-25T04:16:10;16.33;;;8.57;;
52104;SDS011;38103;42.776;23.112;2023-04-25T04:18:36;15.43;;;8.10;;
52104;SDS011;38103;42.776;23.112;2023-04-25T04:21:02;15.20;;;6.63;;
52104;SDS011;38103;42.776;23.112;2023-04-25T04:23:27;15.30;;;6.60;;
52104;SDS011;38103;42.776;23.112;2023-04-25T04:25:53;13.75;;;6.85;;
52104;SDS011;38103;42.776;23.112;2023-04-25T04:28:19;18.83;;;7.88;;
52104;SDS011;38103;42.776;23.112;2023-04-25T04:30:45;17.42;;;9.13;;
52104;SDS011;38103;42.776;23.112;2023-04-25T04:33:11;16.67;;;8.77;;
52104;SDS011;38103;42.776;23.112;2023-04-25T04:35:37;17.50;;;9.68;;
52104;SDS011;38103;42.776;23.112;2023-04-25T04:38:02;17.67;;;8.55;;
52104;SDS011;38103;42.776;23.112;2023-04-25T04:40:28;18.15;;;8.38;;
52104;SDS011;38103;42.776;23.112;2023-04-25T04:42:55;17.95;;;10.60;;
52104;SDS011;38103;42.776;23.112;2023-04-25T04:45:22;20.48;;;10.10;;
52104;SDS011;38103;42.776;23.112;2023-04-25T04:47:47;17.67;;;10.27;;
52104;SDS011;38103;42.776;23.112;2023-04-25T04:50:13;18.73;;;9.40;;
52104;SDS011;38103;42.776;23.112;2023-04-25T04:52:39;19.17;;;10.57;;
52104;SDS011;38103;42.776;23.112;2023-04-25T04:55:05;16.45;;;9.57;;
52104;SDS011;38103;42.776;23.112;2023-04-25T04:57:31;16.60;;;9.68;;
52104;SDS011;38103;42.776;23.112;2023-04-25T04:59:58;15.93;;;8.93;;
52104;SDS011;38103;42.776;23.112;2023-04-25T05:02:23;14.38;;;8.57;;
52104;SDS011;38103;42.776;23.112;2023-04-25T05:04:49;13.73;;;7.57;;
52104;SDS011;38103;42.776;23.112;2023-04-25T05:07:15;15.07;;;7.55;;
52104;SDS011;38103;42.776;23.112;2023-04-25T05:09:40;14.40;;;7.25;;
52104;SDS011;38103;42.776;23.112;2023-04-25T05:12:06;14.15;;;7.57;;
52104;SDS011;38103;42.776;23.112;2023-04-25T05:14:32;14.25;;;7.05;;
52104;SDS011;38103;42.776;23.112;2023-04-25T05:16:58;13.18;;;6.68;;
52104;SDS011;38103;42.776;23.112;2023-04-25T05:19:24;12.85;;;7.00;;
52104;SDS011;38103;42.776;23.112;2023-04-25T05:21:49;13.98;;;7.07;;
52104;SDS011;38103;42.776;23.112;2023-04-25T05:24:15;13.27;;;7.45;;
52104;SDS011;38103;42.776;23.112;2023-04-25T05:26:40;13.95;;;7.65;;
52104;SDS011;38103;42.776;23.112;2023-04-25T05:29:06;12.65;;;6.60;;
52104;SDS011;38103;42.776;23.112;2023-04-25T05:31:31;13.20;;;7.22;;
52104;SDS011;38103;42.776;23.112;2023-04-25T05:33:57;12.63;;;7.07;;
52104;SDS011;38103;42.776;23.112;2023-04-25T05:36:23;12.30;;;6.90;;
52104;SDS011;38103;42.776;23.112;2023-04-25T05:38:48;12.68;;;6.57;;
52104;SDS011;38103;42.776;23.112;2023-04-25T05:41:14;13.30;;;6.97;;
52104;SDS011;38103;42.776;23.112;2023-04-25T05:43:39;12.68;;;6.88;;
52104;SDS011;38103;42.776;23.112;2023-04-25T05:46:10;13.13;;;6.38;;
52104;SDS011;38103;42.776;23.112;2023-04-25T05:48:35;14.15;;;7.95;;
52104;SDS011;38103;42.776;23.112;2023-04-25T05:51:01;14.07;;;7.72;;
52104;SDS011;38103;42.776;23.112;2023-04-25T05:53:26;15.45;;;8.20;;
52104;SDS011;38103;42.776;23.112;2023-04-25T05:55:52;16.95;;;8.00;;
52104;SDS011;38103;42.776;23.112;2023-04-25T05:58:17;13.35;;;7.70;;
52104;SDS011;38103;42.776;23.112;2023-04-25T06:00:42;15.52;;;7.57;;
52104;SDS011;38103;42.776;23.112;2023-04-25T06:03:08;14.10;;;7.90;;
52104;SDS011;38103;42.776;23.112;2023-04-25T06:05:34;13.48;;;7.57;;
52104;SDS011;38103;42.776;23.112;2023-04-25T06:08:00;13.95;;;7.10;;
52104;SDS011;38103;42.776;23.112;2023-04-25T06:10:26;14.75;;;7.40;;
52104;SDS011;38103;42.776;23.112;2023-04-25T06:12:51;16.30;;;7.38;;
52104;SDS011;38103;42.776;23.112;2023-04-25T06:15:17;14.05;;;7.47;;
52104;SDS011;38103;42.776;23.112;2023-04-25T06:17:42;19.02;;;7.93;;
52104;SDS011;38103;42.776;23.112;2023-04-25T06:20:08;16.10;;;7.88;;
52104;SDS011;38103;42.776;23.112;2023-04-25T06:22:33;19.08;;;8.50;;
52104;SDS011;38103;42.776;23.112;2023-04-25T06:24:59;12.18;;;5.78;;
52104;SDS011;38103;42.776;23.112;2023-04-25T06:27:25;12.35;;;5.18;;
52104;SDS011;38103;42.776;23.112;2023-04-25T06:29:50;11.50;;;4.88;;
52104;SDS011;38103;42.776;23.112;2023-04-25T06:32:16;15.38;;;5.38;;
52104;SDS011;38103;42.776;23.112;2023-04-25T06:34:43;12.27;;;4.70;;
52104;SDS011;38103;42.776;23.112;2023-04-25T06:37:08;12.93;;;4.88;;
52104;SDS011;38103;42.776;23.112;2023-04-25T06:39:33;10.20;;;4.40;;
52104;SDS011;38103;42.776;23.112;2023-04-25T06:41:59;11.02;;;4.88;;
52104;SDS011;38103;42.776;23.112;2023-04-25T06:44:25;10.73;;;4.18;;
52104;SDS011;38103;42.776;23.112;2023-04-25T06:46:51;11.73;;;4.07;;
52104;SDS011;38103;42.776;23.112;2023-04-25T06:49:16;10.48;;;4.30;;
52104;SDS011;38103;42.776;23.112;2023-04-25T06:51:42;11.15;;;4.32;;
52104;SDS011;38103;42.776;23.112;2023-04-25T06:54:07;12.18;;;4.20;;
52104;SDS011;38103;42.776;23.112;2023-04-25T06:56:32;10.88;;;3.88;;
52104;SDS011;38103;42.776;23.112;2023-04-25T06:58:58;9.40;;;3.55;;
52104;SDS011;38103;42.776;23.112;2023-04-25T07:01:25;9.32;;;3.70;;
52104;SDS011;38103;42.776;23.112;2023-04-25T07:03:50;9.68;;;3.70;;
52104;SDS011;38103;42.776;23.112;2023-04-25T07:06:16;10.48;;;3.65;;
52104;SDS011;38103;42.776;23.112;2023-04-25T07:08:41;11.27;;;3.97;;
52104;SDS011;38103;42.776;23.112;2023-04-25T07:11:06;10.95;;;4.07;;
52104;SDS011;38103;42.776;23.112;2023-04-25T07:13:32;10.02;;;3.60;;
52104;SDS011;38103;42.776;23.112;2023-04-25T07:15:57;8.18;;;3.25;;
52104;SDS011;38103;42.776;23.112;2023-04-25T07:18:23;12.65;;;3.78;;
52104;SDS011;38103;42.776;23.112;2023-04-25T07:20:48;9.10;;;3.17;;
52104;SDS011;38103;42.776;23.112;2023-04-25T07:23:13;8.05;;;3.10;;
52104;SDS011;38103;42.776;23.112;2023-04-25T07:25:39;9.15;;;3.58;;
52104;SDS011;38103;42.776;23.112;2023-04-25T07:28:04;9.32;;;3.30;;
52104;SDS011;38103;42.776;23.112;2023-04-25T07:30:30;8.50;;;3.42;;
52104;SDS011;38103;42.776;23.112;2023-04-25T07:32:55;8.48;;;3.15;;
52104;SDS011;38103;42.776;23.112;2023-04-25T07:35:21;10.48;;;3.55;;
52104;SDS011;38103;42.776;23.112;2023-04-25T07:37:46;8.63;;;3.30;;
52104;SDS011;38103;42.776;23.112;2023-04-25T07:40:12;8.63;;;3.22;;
52104;SDS011;38103;42.776;23.112;2023-04-25T07:42:37;10.10;;;3.40;;
52104;SDS011;38103;42.776;23.112;2023-04-25T07:45:03;8.85;;;3.53;;
52104;SDS011;38103;42.776;23.112;2023-04-25T07:47:28;10.90;;;3.25;;
52104;SDS011;38103;42.776;23.112;2023-04-25T07:49:54;8.07;;;2.97;;
52104;SDS011;38103;42.776;23.112;2023-04-25T07:52:19;7.28;;;2.92;;
52104;SDS011;38103;42.776;23.112;2023-04-25T07:54:44;6.75;;;2.70;;
52104;SDS011;38103;42.776;23.112;2023-04-25T07:57:10;7.68;;;2.72;;
52104;SDS011;38103;42.776;23.112;2023-04-25T07:59:35;8.88;;;2.75;;
52104;SDS011;38103;42.776;23.112;2023-04-25T08:02:01;7.93;;;2.72;;
52104;SDS011;38103;42.776;23.112;2023-04-25T08:04:27;9.10;;;3.40;;
52104;SDS011;38103;42.776;23.112;2023-04-25T08:06:52;7.60;;;3.00;;
52104;SDS011;38103;42.776;23.112;2023-04-25T08:09:21;7.97;;;2.90;;
52104;SDS011;38103;42.776;23.112;2023-04-25T08:11:47;8.45;;;3.05;;
52104;SDS011;38103;42.776;23.112;2023-04-25T08:14:13;7.80;;;2.88;;
52104;SDS011;38103;42.776;23.112;2023-04-25T08:16:38;11.57;;;3.88;;
52104;SDS011;38103;42.776;23.112;2023-04-25T08:19:04;56.50;;;27.00;;
52104;SDS011;38103;42.776;23.112;2023-04-25T08:21:30;35.22;;;16.58;;
52104;SDS011;38103;42.776;23.112;2023-04-25T08:23:56;12.90;;;5.25;;
52104;SDS011;38103;42.776;23.112;2023-04-25T08:26:23;11.68;;;4.00;;
52104;SDS011;38103;42.776;23.112;2023-04-25T08:28:51;8.63;;;3.00;;
52104;SDS011;38103;42.776;23.112;2023-04-25T08:31:17;7.97;;;2.65;;
52104;SDS011;38103;42.776;23.112;2023-04-25T08:33:42;8.20;;;2.80;;
52104;SDS011;38103;42.776;23.112;2023-04-25T08:36:08;8.00;;;2.88;;
52104;SDS011;38103;42.776;23.112;2023-04-25T08:38:33;7.57;;;2.75;;
52104;SDS011;38103;42.776;23.112;2023-04-25T08:40:59;7.57;;;2.40;;
52104;SDS011;38103;42.776;23.112;2023-04-25T08:43:26;7.90;;;2.70;;
52104;SDS011;38103;42.776;23.112;2023-04-25T08:45:54;7.03;;;2.58;;
52104;SDS011;38103;42.776;23.112;2023-04-25T08:48:29;6.55;;;2.38;;
52104;SDS011;38103;42.776;23.112;2023-04-25T08:50:57;6.63;;;2.30;;
52104;SDS011;38103;42.776;23.112;2023-04-25T08:53:31;5.60;;;2.10;;
52104;SDS011;38103;42.776;23.112;2023-04-25T08:55:58;5.78;;;2.10;;
52104;SDS011;38103;42.776;23.112;2023-04-25T08:58:24;5.15;;;2.00;;
52104;SDS011;38103;42.776;23.112;2023-04-25T09:00:50;5.35;;;2.10;;
52104;SDS011;38103;42.776;23.112;2023-04-25T09:03:17;7.10;;;2.40;;
52104;SDS011;38103;42.776;23.112;2023-04-25T09:05:42;6.72;;;2.47;;
52104;SDS011;38103;42.776;23.112;2023-04-25T09:08:08;7.70;;;2.70;;
52104;SDS011;38103;42.776;23.112;2023-04-25T09:10:34;10.98;;;2.85;;
52104;SDS011;38103;42.776;23.112;2023-04-25T09:13:06;9.18;;;3.00;;
52104;SDS011;38103;42.776;23.112;2023-04-25T09:15:50;7.93;;;2.80;;
52104;SDS011;38103;42.776;23.112;2023-04-25T09:18:23;11.25;;;3.08;;
52104;SDS011;38103;42.776;23.112;2023-04-25T09:20:50;6.30;;;2.00;;
52104;SDS011;38103;42.776;23.112;2023-04-25T09:23:17;6.05;;;2.05;;
52104;SDS011;38103;42.776;23.112;2023-04-25T09:25:45;6.15;;;2.17;;
52104;SDS011;38103;42.776;23.112;2023-04-25T09:28:13;6.70;;;2.20;;
52104;SDS011;38103;42.776;23.112;2023-04-25T09:30:38;6.05;;;2.08;;
52104;SDS011;38103;42.776;23.112;2023-04-25T09:33:04;5.47;;;2.00;;
52104;SDS011;38103;42.776;23.112;2023-04-25T09:35:40;6.50;;;2.30;;
52104;SDS011;38103;42.776;23.112;2023-04-25T09:38:11;6.47;;;1.90;;
52104;SDS011;38103;42.776;23.112;2023-04-25T09:40:42;4.78;;;1.90;;
52104;SDS011;38103;42.776;23.112;2023-04-25T09:43:09;5.07;;;1.83;;
52104;SDS011;38103;42.776;23.112;2023-04-25T09:45:41;5.07;;;1.95;;
52104;SDS011;38103;42.776;23.112;2023-04-25T09:48:10;3.45;;;1.85;;
52104;SDS011;38103;42.776;23.112;2023-04-25T09:50:37;6.38;;;2.00;;
52104;SDS011;38103;42.776;23.112;2023-04-25T09:53:04;4.95;;;1.80;;
52104;SDS011;38103;42.776;23.112;2023-04-25T09:55:31;4.05;;;1.60;;
52104;SDS011;38103;42.776;23.112;2023-04-25T09:57:57;5.00;;;1.83;;
52104;SDS011;38103;42.776;23.112;2023-04-25T10:00:30;5.78;;;1.80;;
52104;SDS011;38103;42.776;23.112;2023-04-25T10:02:57;6.07;;;1.80;;
52104;SDS011;38103;42.776;23.112;2023-04-25T10:05:23;4.10;;;1.80;;
52104;SDS011;38103;42.776;23.112;2023-04-25T10:07:50;6.78;;;1.98;;
52104;SDS011;38103;42.776;23.112;2023-04-25T10:10:17;8.27;;;2.90;;
52104;SDS011;38103;42.776;23.112;2023-04-25T10:12:44;6.50;;;2.20;;
52104;SDS011;38103;42.776;23.112;2023-04-25T10:15:10;6.38;;;2.03;;
52104;SDS011;38103;42.776;23.112;2023-04-25T10:17:37;7.40;;;2.05;;
52104;SDS011;38103;42.776;23.112;2023-04-25T10:20:03;7.72;;;2.20;;
52104;SDS011;38103;42.776;23.112;2023-04-25T10:22:42;7.90;;;2.40;;
52104;SDS011;38103;42.776;23.112;2023-04-25T10:25:13;6.68;;;2.10;;
52104;SDS011;38103;42.776;23.112;2023-04-25T10:27:39;5.30;;;1.95;;
52104;SDS011;38103;42.776;23.112;2023-04-25T10:30:13;7.72;;;2.00;;
52104;SDS011;38103;42.776;23.112;2023-04-25T10:32:41;8.32;;;2.17;;
52104;SDS011;38103;42.776;23.112;2023-04-25T10:35:10;6.25;;;2.10;;
52104;SDS011;38103;42.776;23.112;2023-04-25T10:37:59;8.23;;;2.30;;
52104;SDS011;38103;42.776;23.112;2023-04-25T10:40:25;5.93;;;2.20;;
52104;SDS011;38103;42.776;23.112;2023-04-25T10:42:54;5.80;;;1.98;;
52104;SDS011;38103;42.776;23.112;2023-04-25T10:45:20;5.47;;;1.85;;
52104;SDS011;38103;42.776;23.112;2023-04-25T10:47:46;4.45;;;1.85;;
52104;SDS011;38103;42.776;23.112;2023-04-25T10:50:12;5.63;;;1.95;;
52104;SDS011;38103;42.776;23.112;2023-04-25T10:52:41;3.22;;;1.55;;
52104;SDS011;38103;42.776;23.112;2023-04-25T10:55:06;4.32;;;1.77;;
52104;SDS011;38103;42.776;23.112;2023-04-25T10:57:35;3.03;;;1.63;;
52104;SDS011;38103;42.776;23.112;2023-04-25T11:00:12;4.45;;;1.60;;
52104;SDS011;38103;42.776;23.112;2023-04-25T11:05:15;4.82;;;1.80;;
52104;SDS011;38103;42.776;23.112;2023-04-25T11:07:51;4.25;;;1.83;;
52104;SDS011;38103;42.776;23.112;2023-04-25T11:10:19;4.80;;;1.90;;
52104;SDS011;38103;42.776;23.112;2023-04-25T11:12:45;4.03;;;1.75;;
52104;SDS011;38103;42.776;23.112;2023-04-25T11:15:12;3.28;;;1.63;;
52104;SDS011;38103;42.776;23.112;2023-04-25T11:17:38;6.03;;;1.90;;
52104;SDS011;38103;42.776;23.112;2023-04-25T11:20:05;5.10;;;1.80;;
52104;SDS011;38103;42.776;23.112;2023-04-25T11:22:34;4.03;;;1.90;;
52104;SDS011;38103;42.776;23.112;2023-04-25T11:25:04;6.30;;;1.75;;
52104;SDS011;38103;42.776;23.112;2023-04-25T11:27:30;6.82;;;2.33;;
52104;SDS011;38103;42.776;23.112;2023-04-25T11:29:55;4.25;;;1.75;;
52104;SDS011;38103;42.776;23.112;2023-04-25T11:32:21;6.80;;;2.20;;
52104;SDS011;38103;42.776;23.112;2023-04-25T11:34:46;5.60;;;1.80;;
52104;SDS011;38103;42.776;23.112;2023-04-25T11:37:12;8.18;;;3.15;;
52104;SDS011;38103;42.776;23.112;2023-04-25T11:39:42;5.95;;;1.95;;
52104;SDS011;38103;42.776;23.112;2023-04-25T11:42:09;5.40;;;1.80;;
52104;SDS011;38103;42.776;23.112;2023-04-25T11:44:35;5.28;;;2.00;;
52104;SDS011;38103;42.776;23.112;2023-04-25T11:47:03;5.35;;;2.00;;
52104;SDS011;38103;42.776;23.112;2023-04-25T11:49:32;2.67;;;1.70;;
52104;SDS011;38103;42.776;23.112;2023-04-25T11:51:57;6.57;;;2.08;;
52104;SDS011;38103;42.776;23.112;2023-04-25T11:54:22;6.05;;;1.80;;
52104;SDS011;38103;42.776;23.112;2023-04-25T11:56:48;3.97;;;1.77;;
52104;SDS011;38103;42.776;23.112;2023-04-25T11:59:13;6.40;;;1.90;;
52104;SDS011;38103;42.776;23.112;2023-04-25T12:01:39;7.85;;;1.90;;
52104;SDS011;38103;42.776;23.112;2023-04-25T12:04:10;7.68;;;2.25;;
52104;SDS011;38103;42.776;23.112;2023-04-25T12:06:37;6.47;;;2.13;;
52104;SDS011;38103;42.776;23.112;2023-04-25T12:09:10;9.00;;;2.50;;
52104;SDS011;38103;42.776;23.112;2023-04-25T12:11:41;10.68;;;2.42;;
52104;SDS011;38103;42.776;23.112;2023-04-25T12:14:10;10.73;;;2.60;;
52104;SDS011;38103;42.776;23.112;2023-04-25T12:16:41;10.18;;;2.65;;
52104;SDS011;38103;42.776;23.112;2023-04-25T12:19:09;8.38;;;2.88;;
52104;SDS011;38103;42.776;23.112;2023-04-25T12:21:39;8.35;;;2.72;;
52104;SDS011;38103;42.776;23.112;2023-04-25T12:26:49;8.38;;;2.70;;
52104;SDS011;38103;42.776;23.112;2023-04-25T12:29:25;8.77;;;2.90;;
52104;SDS011;38103;42.776;23.112;2023-04-25T12:31:52;7.32;;;2.60;;
52104;SDS011;38103;42.776;23.112;2023-04-25T12:34:19;7.30;;;2.60;;
52104;SDS011;38103;42.776;23.112;2023-04-25T12:36:46;6.38;;;2.45;;
52104;SDS011;38103;42.776;23.112;2023-04-25T12:39:15;6.97;;;2.47;;
52104;SDS011;38103;42.776;23.112;2023-04-25T12:41:45;7.97;;;2.40;;
52104;SDS011;38103;42.776;23.112;2023-04-25T12:44:11;7.03;;;2.45;;
52104;SDS011;38103;42.776;23.112;2023-04-25T12:46:37;8.55;;;2.28;;
52104;SDS011;38103;42.776;23.112;2023-04-25T12:49:03;9.45;;;2.70;;
52104;SDS011;38103;42.776;23.112;2023-04-25T12:51:29;7.47;;;2.55;;
52104;SDS011;38103;42.776;23.112;2023-04-25T12:53:54;9.05;;;2.33;;
52104;SDS011;38103;42.776;23.112;2023-04-25T12:56:20;5.95;;;2.20;;
52104;SDS011;38103;42.776;23.112;2023-04-25T12:58:45;6.28;;;2.10;;
52104;SDS011;38103;42.776;23.112;2023-04-25T13:01:13;6.55;;;2.08;;
52104;SDS011;38103;42.776;23.112;2023-04-25T13:03:38;5.13;;;1.85;;
52104;SDS011;38103;42.776;23.112;2023-04-25T13:06:05;5.85;;;1.80;;
52104;SDS011;38103;42.776;23.112;2023-04-25T13:08:31;3.45;;;1.70;;
52104;SDS011;38103;42.776;23.112;2023-04-25T13:10:56;3.88;;;1.63;;
52104;SDS011;38103;42.776;23.112;2023-04-25T13:13:22;4.00;;;1.70;;
52104;SDS011;38103;42.776;23.112;2023-04-25T13:15:47;4.38;;;1.77;;
52104;SDS011;38103;42.776;23.112;2023-04-25T13:18:12;3.25;;;1.63;;
52104;SDS011;38103;42.776;23.112;2023-04-25T13:20:38;4.03;;;1.70;;
52104;SDS011;38103;42.776;23.112;2023-04-25T13:23:03;3.38;;;1.67;;
52104;SDS011;38103;42.776;23.112;2023-04-25T13:25:29;5.10;;;1.70;;
52104;SDS011;38103;42.776;23.112;2023-04-25T13:27:54;1.92;;;1.52;;
52104;SDS011;38103;42.776;23.112;2023-04-25T13:30:20;2.38;;;1.50;;
52104;SDS011;38103;42.776;23.112;2023-04-25T13:32:45;5.68;;;1.80;;
52104;SDS011;38103;42.776;23.112;2023-04-25T13:35:11;3.13;;;1.58;;
52104;SDS011;38103;42.776;23.112;2023-04-25T13:37:38;4.30;;;1.73;;
52104;SDS011;38103;42.776;23.112;2023-04-25T13:40:05;3.70;;;1.60;;
52104;SDS011;38103;42.776;23.112;2023-04-25T13:42:33;3.70;;;1.65;;
52104;SDS011;38103;42.776;23.112;2023-04-25T13:44:59;4.03;;;1.80;;
52104;SDS011;38103;42.776;23.112;2023-04-25T13:47:25;3.90;;;1.55;;
52104;SDS011;38103;42.776;23.112;2023-04-25T13:49:51;2.80;;;1.60;;
52104;SDS011;38103;42.776;23.112;2023-04-25T13:52:16;3.45;;;1.65;;
52104;SDS011;38103;42.776;23.112;2023-04-25T13:54:41;3.00;;;1.60;;
52104;SDS011;38103;42.776;23.112;2023-04-25T13:57:07;2.97;;;1.55;;
52104;SDS011;38103;42.776;23.112;2023-04-25T13:59:32;2.65;;;1.58;;
52104;SDS011;38103;42.776;23.112;2023-04-25T14:01:58;2.85;;;1.60;;
52104;SDS011;38103;42.776;23.112;2023-04-25T14:04:23;3.50;;;1.70;;
52104;SDS011;38103;42.776;23.112;2023-04-25T14:06:50;3.13;;;1.60;;
52104;SDS011;38103;42.776;23.112;2023-04-25T14:09:16;2.97;;;1.52;;
52104;SDS011;38103;42.776;23.112;2023-04-25T14:11:42;3.35;;;1.70;;
52104;SDS011;38103;42.776;23.112;2023-04-25T14:14:07;3.78;;;1.75;;
52104;SDS011;38103;42.776;23.112;2023-04-25T14:16:33;3.05;;;1.60;;
52104;SDS011;38103;42.776;23.112;2023-04-25T14:18:59;2.17;;;1.50;;
52104;SDS011;38103;42.776;23.112;2023-04-25T14:21:25;2.83;;;1.58;;
52104;SDS011;38103;42.776;23.112;2023-04-25T14:23:51;2.97;;;1.70;;
52104;SDS011;38103;42.776;23.112;2023-04-25T14:26:17;3.35;;;1.65;;
52104;SDS011;38103;42.776;23.112;2023-04-25T14:28:42;2.90;;;1.50;;